createdAt,value
2019-05-11T00:00:58.038Z,16.93
2019-05-11T00:03:26.457Z,14.43
2019-05-11T00:05:54.917Z,14.90
2019-05-11T00:08:23.384Z,15.58
2019-05-11T00:10:51.810Z,12.95
2019-05-11T00:13:20.256Z,13.88
2019-05-11T00:15:48.694Z,12.80
2019-05-11T00:18:17.143Z,12.63
2019-05-11T00:20:45.588Z,12.93
2019-05-11T00:23:14.013Z,12.37
2019-05-11T00:25:42.449Z,11.38
2019-05-11T00:28:10.942Z,12.82
2019-05-11T00:30:58.716Z,11.65
2019-05-11T00:33:27.180Z,12.93
2019-05-11T00:35:55.613Z,12.05
2019-05-11T00:38:24.065Z,13.20
2019-05-11T00:40:52.499Z,14.75
2019-05-11T00:43:20.929Z,11.60
2019-05-11T00:45:49.473Z,14.85
2019-05-11T00:48:17.964Z,13.50
2019-05-11T00:50:46.439Z,15.10
2019-05-11T00:53:14.860Z,15.60
2019-05-11T00:55:43.312Z,13.13
2019-05-11T00:58:11.745Z,13.78
2019-05-11T01:00:40.198Z,12.18
2019-05-11T01:03:08.620Z,11.33
2019-05-11T01:05:37.068Z,14.95
2019-05-11T01:08:05.605Z,12.05
2019-05-11T01:10:42.208Z,13.43
2019-05-11T01:13:04.130Z,9.40
2019-05-11T01:15:32.564Z,12.33
2019-05-11T01:18:01.010Z,13.45
2019-05-11T01:20:29.448Z,11.73
2019-05-11T01:22:57.895Z,17.92
2019-05-11T01:25:26.338Z,14.78
2019-05-11T01:27:54.783Z,10.75
2019-05-11T01:30:23.204Z,9.48
2019-05-11T01:32:51.657Z,13.58
2019-05-11T01:35:20.088Z,11.48
2019-05-11T01:37:48.525Z,9.85
2019-05-11T01:40:16.978Z,9.50
2019-05-11T01:42:45.388Z,12.65
2019-05-11T01:45:13.832Z,11.28
2019-05-11T01:47:42.252Z,13.25
2019-05-11T01:50:10.709Z,10.80
2019-05-11T01:52:39.146Z,13.08
2019-05-11T01:55:07.572Z,9.45
2019-05-11T01:57:35.996Z,9.75
2019-05-11T02:00:07.537Z,8.13
2019-05-11T02:02:35.964Z,9.78
2019-05-11T02:05:23.424Z,9.73
2019-05-11T02:07:51.862Z,10.35
2019-05-11T02:10:20.300Z,8.83
2019-05-11T02:12:48.733Z,9.73
2019-05-11T02:15:17.164Z,12.73
2019-05-11T02:17:45.612Z,12.30
2019-05-11T02:20:14.029Z,78.37
2019-05-11T02:22:42.484Z,7.60
2019-05-11T02:25:10.908Z,9.50
2019-05-11T02:27:39.375Z,13.48
2019-05-11T02:30:07.782Z,13.38
2019-05-11T02:32:36.222Z,10.03
2019-05-11T02:35:07.386Z,7.55
2019-05-11T02:37:35.935Z,10.43
2019-05-11T02:40:04.993Z,9.50
2019-05-11T02:42:33.452Z,13.18
2019-05-11T02:45:01.900Z,10.58
2019-05-11T02:47:30.352Z,8.78
2019-05-11T02:49:58.814Z,13.68
2019-05-11T02:52:27.724Z,8.50
2019-05-11T02:54:56.187Z,10.68
2019-05-11T02:57:24.620Z,12.03
2019-05-11T02:59:53.060Z,10.18
2019-05-11T03:02:21.489Z,11.45
2019-05-11T03:04:49.926Z,12.53
2019-05-11T03:07:18.363Z,11.53
2019-05-11T03:09:46.819Z,11.53
2019-05-11T03:12:15.237Z,13.48
2019-05-11T03:14:43.699Z,11.85
2019-05-11T03:17:13.699Z,10.13
2019-05-11T03:19:42.153Z,12.27
2019-05-11T03:22:29.913Z,9.45
2019-05-11T03:24:58.349Z,12.37
2019-05-11T03:27:26.776Z,13.53
2019-05-11T03:29:59.768Z,14.13
2019-05-11T03:32:25.273Z,13.50
2019-05-11T03:34:53.688Z,14.35
2019-05-11T03:37:22.129Z,13.90
2019-05-11T03:39:50.550Z,14.25
2019-05-11T03:42:18.994Z,11.05
2019-05-11T03:44:47.416Z,13.28
2019-05-11T03:47:15.857Z,13.62
2019-05-11T03:49:44.286Z,14.90
2019-05-11T03:52:12.726Z,13.72
2019-05-11T03:54:41.155Z,14.45
2019-05-11T03:57:09.585Z,12.18
2019-05-11T03:59:38.021Z,14.87
2019-05-11T04:02:06.473Z,16.55
2019-05-11T04:04:34.920Z,18.30
2019-05-11T04:07:03.350Z,13.70
2019-05-11T04:09:31.782Z,13.25
2019-05-11T04:12:00.206Z,14.28
2019-05-11T04:14:28.655Z,14.00
2019-05-11T04:16:57.068Z,14.03
2019-05-11T04:19:25.505Z,13.48
2019-05-11T04:21:53.913Z,12.45
2019-05-11T04:24:22.351Z,12.00
2019-05-11T04:26:50.784Z,12.25
2019-05-11T04:29:19.215Z,22.93
2019-05-11T04:31:47.634Z,10.93
2019-05-11T04:34:35.497Z,16.07
2019-05-11T04:37:03.910Z,12.73
2019-05-11T04:39:32.342Z,15.30
2019-05-11T04:42:00.762Z,16.05
2019-05-11T04:44:29.206Z,14.93
2019-05-11T04:46:57.653Z,14.03
2019-05-11T04:49:26.096Z,12.45
2019-05-11T04:51:54.542Z,16.45
2019-05-11T04:54:22.961Z,15.08
2019-05-11T04:56:51.401Z,13.32
2019-05-11T04:59:19.811Z,11.33
2019-05-11T05:01:48.300Z,13.68
2019-05-11T05:04:16.770Z,14.55
2019-05-11T05:06:58.914Z,13.15
2019-05-11T05:09:15.357Z,11.70
2019-05-11T05:11:43.783Z,10.18
2019-05-11T05:14:12.221Z,12.18
2019-05-11T05:16:40.651Z,11.73
2019-05-11T05:19:09.131Z,10.13
2019-05-11T05:21:37.574Z,14.90
2019-05-11T05:24:06.002Z,11.70
2019-05-11T05:26:34.432Z,11.30
2019-05-11T05:29:02.920Z,12.10
2019-05-11T05:31:31.349Z,12.90
2019-05-11T05:34:01.483Z,13.53
2019-05-11T05:36:30.037Z,15.03
2019-05-11T05:38:58.493Z,15.20
2019-05-11T05:41:26.916Z,13.70
2019-05-11T05:43:55.360Z,11.50
2019-05-11T05:46:24.536Z,16.17
2019-05-11T05:48:52.948Z,15.05
2019-05-11T05:51:21.383Z,11.12
2019-05-11T05:53:49.801Z,11.97
2019-05-11T05:56:18.246Z,16.57
2019-05-11T05:58:46.660Z,11.05
2019-05-11T06:01:15.091Z,13.93
2019-05-11T06:03:43.516Z,18.70
2019-05-11T06:06:11.960Z,17.00
2019-05-11T06:08:43.150Z,15.23
2019-05-11T06:11:10.447Z,14.20
2019-05-11T06:13:45.186Z,17.52
2019-05-11T06:16:08.972Z,12.13
2019-05-11T06:18:37.408Z,16.30
2019-05-11T06:21:05.829Z,15.98
2019-05-11T06:23:34.261Z,15.08
2019-05-11T06:26:02.672Z,16.62
2019-05-11T06:28:31.111Z,16.12
2019-05-11T06:30:59.524Z,13.22
2019-05-11T06:33:27.964Z,25.30
2019-05-11T06:35:56.379Z,32.38
2019-05-11T06:38:24.836Z,28.77
2019-05-11T06:40:53.282Z,22.80
2019-05-11T06:43:21.700Z,19.65
2019-05-11T06:45:50.151Z,17.73
2019-05-11T06:48:18.592Z,16.80
2019-05-11T06:50:47.030Z,15.13
2019-05-11T06:53:15.472Z,17.62
2019-05-11T06:55:43.919Z,16.93
2019-05-11T06:58:12.368Z,16.77
2019-05-11T07:00:40.830Z,17.70
2019-05-11T07:03:09.253Z,17.15
2019-05-11T07:05:37.716Z,15.28
2019-05-11T07:08:06.133Z,22.55
2019-05-11T07:10:34.610Z,15.50
2019-05-11T07:13:03.041Z,20.92
2019-05-11T07:15:31.485Z,18.25
2019-05-11T07:17:59.971Z,16.07
2019-05-11T07:20:28.383Z,19.30
2019-05-11T07:22:56.851Z,19.62
2019-05-11T07:25:25.290Z,16.73
2019-05-11T07:27:53.753Z,18.40
2019-05-11T07:30:22.172Z,19.80
2019-05-11T07:32:50.632Z,20.80
2019-05-11T07:35:19.061Z,17.70
2019-05-11T07:37:48.016Z,21.95
2019-05-11T07:40:18.753Z,14.18
2019-05-11T07:42:48.563Z,16.75
2019-05-11T07:45:18.032Z,17.15
2019-05-11T07:47:48.546Z,15.72
2019-05-11T07:50:18.105Z,14.05
2019-05-11T07:52:48.350Z,15.40
2019-05-11T07:55:38.474Z,23.65
2019-05-11T07:58:08.018Z,14.58
2019-05-11T08:00:39.792Z,19.95
2019-05-11T08:03:08.856Z,13.30
2019-05-11T08:05:38.542Z,17.12
2019-05-11T08:08:08.696Z,15.28
2019-05-11T08:10:39.007Z,18.27
2019-05-11T08:13:09.127Z,14.28
2019-05-11T08:15:38.278Z,14.93
2019-05-11T08:18:08.524Z,11.83
2019-05-11T08:20:38.497Z,13.60
2019-05-11T08:23:28.581Z,12.47
2019-05-11T08:25:58.084Z,15.35
2019-05-11T08:28:28.713Z,13.70
2019-05-11T08:30:57.881Z,12.68
2019-05-11T08:33:28.433Z,13.87
2019-05-11T08:35:58.244Z,11.65
2019-05-11T08:38:28.557Z,10.88
2019-05-11T08:40:59.042Z,13.22
2019-05-11T08:43:28.515Z,8.80
2019-05-11T08:45:57.849Z,12.47
2019-05-11T08:48:28.307Z,8.10
2019-05-11T08:50:58.193Z,12.18
2019-05-11T08:53:28.382Z,6.47
2019-05-11T08:55:58.835Z,12.58
2019-05-11T08:58:27.774Z,10.10
2019-05-11T09:00:58.320Z,8.38
2019-05-11T09:03:28.424Z,11.30
2019-05-11T09:05:57.911Z,12.78
2019-05-11T09:08:28.291Z,9.85
2019-05-11T09:10:58.242Z,11.30
2019-05-11T09:13:27.885Z,9.53
2019-05-11T09:15:58.775Z,8.48
2019-05-11T09:18:27.959Z,8.05
2019-05-11T09:20:57.703Z,15.05
2019-05-11T09:23:34.581Z,10.70
2019-05-11T09:25:58.394Z,13.75
2019-05-11T09:28:29.305Z,12.35
2019-05-11T09:30:57.764Z,11.97
2019-05-11T09:33:28.329Z,12.78
2019-05-11T09:35:58.390Z,10.68
2019-05-11T09:38:27.771Z,8.93
2019-05-11T09:40:58.556Z,7.23
2019-05-11T09:43:28.384Z,14.20
2019-05-11T09:45:58.279Z,9.55
2019-05-11T09:48:28.413Z,12.40
2019-05-11T09:51:22.332Z,7.75
2019-05-11T09:53:50.768Z,16.55
2019-05-11T09:56:19.255Z,15.15
2019-05-11T09:58:48.172Z,18.67
2019-05-11T10:01:18.301Z,17.52
2019-05-11T10:03:48.229Z,20.30
2019-05-11T10:06:18.985Z,21.23
2019-05-11T10:08:48.736Z,14.13
2019-05-11T10:11:18.983Z,15.03
2019-05-11T10:13:47.757Z,14.43
2019-05-11T10:16:17.838Z,14.43
2019-05-11T10:18:49.028Z,15.60
2019-05-11T10:21:18.815Z,16.80
2019-05-11T10:23:49.039Z,14.90
2019-05-11T10:26:18.796Z,17.42
2019-05-11T10:28:48.166Z,16.73
2019-05-11T10:31:18.075Z,16.70
2019-05-11T10:33:48.925Z,16.25
2019-05-11T10:36:18.837Z,18.82
2019-05-11T10:38:48.721Z,17.12
2019-05-11T10:41:18.071Z,20.75
2019-05-11T10:43:48.901Z,16.95
2019-05-11T10:46:22.463Z,18.27
2019-05-11T10:48:48.294Z,16.75
2019-05-11T10:51:18.420Z,15.63
2019-05-11T10:53:51.637Z,19.20
2019-05-11T10:56:17.825Z,16.55
2019-05-11T10:58:48.200Z,19.70
2019-05-11T11:01:18.159Z,16.77
2019-05-11T11:03:48.324Z,15.68
2019-05-11T11:06:18.834Z,13.85
2019-05-11T11:08:48.641Z,16.80
2019-05-11T11:11:18.567Z,29.77
2019-05-11T11:13:48.083Z,13.73
2019-05-11T11:16:32.668Z,13.65
2019-05-11T11:18:48.672Z,12.70
2019-05-11T11:21:22.104Z,14.03
2019-05-11T11:23:48.033Z,13.98
2019-05-11T11:26:18.406Z,15.93
2019-05-11T11:28:47.826Z,19.20
2019-05-11T11:31:18.709Z,12.88
2019-05-11T11:33:48.634Z,11.97
2019-05-11T11:36:17.913Z,12.28
2019-05-11T11:38:47.839Z,11.93
2019-05-11T11:41:18.620Z,11.88
2019-05-11T11:43:48.298Z,11.73
2019-05-11T11:46:18.746Z,13.20
2019-05-11T11:48:48.909Z,14.18
2019-05-11T11:51:18.756Z,12.63
2019-05-11T11:53:47.941Z,14.58
2019-05-11T11:56:38.011Z,14.80
2019-05-11T11:59:08.322Z,15.15
2019-05-11T12:01:38.481Z,13.48
2019-05-11T12:04:08.284Z,10.48
2019-05-11T12:06:38.407Z,15.15
2019-05-11T12:09:08.764Z,11.18
2019-05-11T12:11:38.113Z,12.18
2019-05-11T12:14:08.749Z,21.07
2019-05-11T12:16:38.804Z,16.67
2019-05-11T12:19:08.423Z,15.40
2019-05-11T12:21:37.940Z,14.53
2019-05-11T12:24:08.130Z,13.40
2019-05-11T12:26:38.907Z,15.15
2019-05-11T12:29:08.124Z,14.20
2019-05-11T12:31:37.942Z,15.13
2019-05-11T12:34:08.786Z,14.58
2019-05-11T12:36:38.660Z,16.25
2019-05-11T12:39:08.496Z,15.25
2019-05-11T12:41:38.738Z,15.48
2019-05-11T12:44:08.215Z,15.25
2019-05-11T12:46:39.372Z,14.05
2019-05-11T12:49:07.826Z,15.85
2019-05-11T12:51:38.315Z,15.32
2019-05-11T12:54:08.261Z,12.37
2019-05-11T12:56:38.351Z,15.65
2019-05-11T12:59:08.246Z,11.08
2019-05-11T13:01:38.102Z,12.28
2019-05-11T13:04:08.910Z,12.35
2019-05-11T13:06:50.436Z,13.98
2019-05-11T13:09:18.890Z,10.70
2019-05-11T13:11:48.244Z,10.40
2019-05-11T13:14:20.486Z,12.28
2019-05-11T13:16:49.938Z,11.40
2019-05-11T13:19:19.018Z,11.43
2019-05-11T13:21:48.642Z,10.50
2019-05-11T13:24:18.706Z,16.95
2019-05-11T13:26:48.542Z,12.18
2019-05-11T13:29:18.134Z,11.95
2019-05-11T13:31:48.581Z,13.15
2019-05-11T13:34:18.504Z,17.20
2019-05-11T13:36:48.964Z,9.55
2019-05-11T13:39:18.091Z,9.33
2019-05-11T13:41:49.305Z,10.08
2019-05-11T13:44:18.728Z,11.63
2019-05-11T13:49:47.976Z,13.22
2019-05-11T13:52:18.114Z,13.80
2019-05-11T13:54:50.321Z,10.32
2019-05-11T13:57:21.444Z,12.88
2019-05-11T14:03:04.735Z,12.00
2019-05-11T14:05:48.586Z,13.68
2019-05-11T14:08:19.284Z,16.30
2019-05-11T14:10:54.632Z,18.50
2019-05-11T14:13:23.429Z,14.30
2019-05-11T14:15:54.390Z,12.40
2019-05-11T14:21:07.954Z,16.20
2019-05-11T14:23:38.651Z,13.25
2019-05-11T14:26:08.387Z,13.43
2019-05-11T14:28:37.580Z,13.18
2019-05-11T14:31:08.240Z,12.30
2019-05-11T14:33:38.384Z,14.18
2019-05-11T14:36:08.631Z,16.40
2019-05-11T14:38:38.081Z,17.98
2019-05-11T14:41:07.772Z,16.17
2019-05-11T14:43:38.168Z,16.05
2019-05-11T14:46:08.658Z,15.30
2019-05-11T14:48:38.934Z,14.70
2019-05-11T14:51:08.649Z,13.58
2019-05-11T14:53:37.964Z,14.95
2019-05-11T14:56:08.279Z,13.38
2019-05-11T14:58:38.686Z,14.65
2019-05-11T15:01:08.831Z,17.55
2019-05-11T15:03:38.087Z,18.57
2019-05-11T15:06:08.316Z,18.05
2019-05-11T15:08:38.837Z,26.33
2019-05-11T15:11:08.256Z,20.12
2019-05-11T15:13:38.211Z,17.00
2019-05-11T15:16:08.094Z,14.65
2019-05-11T15:18:41.428Z,16.50
2019-05-11T15:21:08.309Z,16.10
2019-05-11T15:23:37.829Z,17.52
2019-05-11T15:26:07.888Z,18.55
2019-05-11T15:28:37.937Z,20.08
2019-05-11T15:31:08.899Z,16.70
2019-05-11T15:33:38.274Z,19.02
2019-05-11T15:36:07.568Z,16.37
2019-05-11T15:38:37.850Z,18.12
2019-05-11T15:41:08.486Z,16.52
2019-05-11T15:43:38.743Z,20.43
2019-05-11T15:46:07.277Z,18.23
2019-05-11T15:48:52.893Z,18.05
2019-05-11T15:51:07.906Z,18.17
2019-05-11T15:53:37.111Z,18.48
2019-05-11T15:56:05.642Z,16.23
2019-05-11T15:58:37.664Z,19.23
2019-05-11T16:01:07.775Z,17.87
2019-05-11T16:03:35.880Z,22.25
2019-05-11T16:06:04.329Z,21.40
2019-05-11T16:08:32.788Z,17.77
2019-05-11T16:11:04.560Z,17.92
2019-05-11T16:13:32.979Z,20.17
2019-05-11T16:16:01.451Z,16.52
2019-05-11T16:18:29.874Z,17.20
2019-05-11T16:20:58.380Z,18.57
2019-05-11T16:23:28.412Z,16.65
2019-05-11T16:25:58.063Z,19.95
2019-05-11T16:28:30.607Z,18.02
2019-05-11T16:30:58.382Z,21.65
2019-05-11T16:33:26.911Z,19.50
2019-05-11T16:35:57.997Z,22.55
2019-05-11T16:38:25.473Z,27.13
2019-05-11T16:40:54.847Z,22.75
2019-05-11T16:43:23.283Z,19.65
2019-05-11T16:45:51.756Z,20.77
2019-05-11T16:48:20.213Z,19.42
2019-05-11T16:50:51.480Z,21.97
2019-05-11T16:53:19.999Z,21.97
2019-05-11T16:55:48.754Z,24.00
2019-05-11T16:58:19.929Z,24.65
2019-05-11T17:00:49.032Z,26.35
2019-05-11T17:03:17.939Z,27.58
2019-05-11T17:05:48.237Z,26.70
2019-05-11T17:08:18.520Z,30.05
2019-05-11T17:10:59.624Z,26.70
2019-05-11T17:13:28.294Z,26.25
2019-05-11T17:15:58.240Z,29.65
2019-05-11T17:18:28.416Z,30.10
2019-05-11T17:20:58.399Z,29.25
2019-05-11T17:23:30.540Z,27.73
2019-05-11T17:25:58.030Z,28.87
2019-05-11T17:28:26.903Z,27.90
2019-05-11T17:30:55.339Z,27.10
2019-05-11T17:33:23.818Z,26.87
2019-05-11T17:35:52.250Z,24.98
2019-05-11T17:38:20.719Z,25.43
2019-05-11T17:40:49.147Z,22.95
2019-05-11T17:43:18.139Z,25.20
2019-05-11T17:45:48.020Z,24.70
2019-05-11T17:48:17.916Z,27.45
2019-05-11T17:50:46.644Z,27.40
2019-05-11T17:53:18.290Z,23.90
2019-05-11T17:55:48.625Z,26.42
2019-05-11T17:58:18.525Z,22.85
2019-05-11T18:00:48.070Z,27.25
2019-05-11T18:03:16.762Z,21.77
2019-05-11T18:05:45.257Z,26.50
2019-05-11T18:08:13.660Z,20.52
2019-05-11T18:10:42.624Z,22.50
2019-05-11T18:13:11.062Z,20.45
2019-05-11T18:15:39.647Z,22.77
2019-05-11T18:18:09.398Z,22.95
2019-05-11T18:20:38.212Z,22.93
2019-05-11T18:23:08.240Z,19.27
2019-05-11T18:25:38.559Z,21.20
2019-05-11T18:28:07.046Z,21.10
2019-05-11T18:30:35.526Z,19.90
2019-05-11T18:33:04.040Z,20.05
2019-05-11T18:35:32.469Z,17.52
2019-05-11T18:38:01.125Z,19.77
2019-05-11T18:40:30.603Z,21.90
2019-05-11T18:42:59.039Z,17.80
2019-05-11T18:45:28.726Z,21.65
2019-05-11T18:47:57.514Z,20.53
2019-05-11T18:50:30.971Z,20.43
2019-05-11T18:52:58.042Z,22.27
2019-05-11T18:55:27.965Z,18.95
2019-05-11T18:57:58.057Z,24.23
2019-05-11T19:00:27.627Z,22.20
2019-05-11T19:02:58.008Z,21.53
2019-05-11T19:05:29.014Z,20.70
2019-05-11T19:07:58.423Z,19.10
2019-05-11T19:10:27.816Z,20.48
2019-05-11T19:12:58.747Z,24.15
2019-05-11T19:15:26.458Z,23.47
2019-05-11T19:17:54.973Z,23.32
2019-05-11T19:20:23.441Z,23.22
2019-05-11T19:22:51.994Z,26.93
2019-05-11T19:25:21.309Z,22.05
2019-05-11T19:27:50.728Z,21.25
2019-05-11T19:30:19.594Z,20.52
2019-05-11T19:32:48.750Z,19.77
2019-05-11T19:35:20.515Z,21.93
2019-05-11T19:37:48.740Z,23.25
2019-05-11T19:40:17.394Z,21.60
2019-05-11T19:42:55.466Z,23.10
2019-05-11T19:45:23.965Z,22.40
2019-05-11T19:47:52.519Z,27.58
2019-05-11T19:50:40.817Z,27.87
2019-05-11T19:53:09.682Z,26.55
2019-05-11T19:55:38.218Z,27.90
2019-05-11T19:58:06.680Z,29.32
2019-05-11T20:00:35.134Z,28.12
2019-05-11T20:03:03.561Z,28.23
2019-05-11T20:05:32.009Z,26.45
2019-05-11T20:08:00.443Z,32.10
2019-05-11T20:10:28.912Z,27.80
2019-05-11T20:12:58.732Z,30.10
2019-05-11T20:15:27.501Z,32.38
2019-05-11T20:17:55.971Z,31.60
2019-05-11T20:20:24.438Z,30.30
2019-05-11T20:22:52.852Z,26.20
2019-05-11T20:25:21.343Z,29.98
2019-05-11T20:27:49.780Z,36.00
2019-05-11T20:30:19.119Z,32.38
2019-05-11T20:32:48.826Z,31.87
2019-05-11T20:35:17.887Z,35.52
2019-05-11T20:37:46.403Z,37.75
2019-05-11T20:40:14.876Z,39.35
2019-05-11T20:42:43.341Z,38.40
2019-05-11T20:45:12.868Z,39.83
2019-05-11T20:47:41.335Z,40.78
2019-05-11T20:50:09.828Z,42.78
2019-05-11T20:52:39.241Z,40.12
2019-05-11T20:55:08.967Z,45.40
2019-05-11T20:57:39.241Z,42.23
2019-05-11T21:00:08.282Z,45.40
2019-05-11T21:02:38.069Z,45.70
2019-05-11T21:05:09.006Z,48.10
2019-05-11T21:07:38.819Z,44.27
2019-05-11T21:12:42.382Z,49.42
2019-05-11T21:15:10.847Z,46.75
2019-05-11T21:17:39.303Z,49.53
2019-05-11T21:20:09.014Z,52.35
2019-05-11T21:22:40.037Z,46.28
2019-05-11T21:27:42.564Z,52.85
2019-05-11T21:30:11.066Z,49.20
2019-05-11T21:32:39.899Z,49.88
2019-05-11T21:35:08.972Z,51.08
2019-05-11T21:37:39.009Z,54.03
2019-05-11T21:40:08.528Z,50.90
2019-05-11T21:42:38.908Z,54.60
2019-05-11T21:45:09.130Z,52.38
2019-05-11T21:47:39.249Z,57.33
2019-05-11T21:50:09.120Z,49.55
2019-05-11T21:52:38.390Z,49.33
2019-05-11T21:55:09.344Z,52.17
2019-05-11T21:57:38.941Z,50.65
2019-05-11T22:00:08.735Z,47.75
2019-05-11T22:02:38.442Z,51.13
2019-05-11T22:05:07.884Z,49.45
2019-05-11T22:10:17.801Z,47.85
2019-05-11T22:12:48.837Z,45.83
2019-05-11T22:15:16.640Z,46.42
2019-05-11T22:18:04.515Z,46.80
2019-05-11T22:20:32.997Z,47.10
2019-05-11T22:23:01.456Z,45.90
2019-05-11T22:25:29.906Z,47.15
2019-05-11T22:28:00.389Z,45.52
2019-05-11T22:30:28.861Z,42.80
2019-05-11T22:32:58.305Z,43.28
2019-05-11T22:35:28.657Z,42.13
2019-05-11T22:37:57.798Z,38.28
2019-05-11T22:40:28.013Z,39.45
2019-05-11T22:42:58.375Z,41.18
2019-05-11T22:45:31.040Z,44.38
2019-05-11T22:47:59.552Z,47.13
2019-05-11T22:50:29.094Z,43.70
2019-05-11T22:52:58.417Z,36.80
2019-05-11T22:55:27.747Z,41.70
2019-05-11T23:00:41.617Z,35.15
2019-05-11T23:05:44.537Z,33.13
2019-05-11T23:08:12.984Z,32.83
2019-05-11T23:10:41.407Z,32.67
2019-05-11T23:13:11.290Z,33.20
2019-05-11T23:15:40.430Z,32.93
2019-05-11T23:18:09.405Z,32.10
2019-05-11T23:20:38.553Z,34.50
2019-05-11T23:23:08.821Z,31.65
2019-05-11T23:25:37.621Z,33.35
2019-05-11T23:28:06.067Z,34.30
2019-05-11T23:30:34.515Z,28.92
2019-05-11T23:33:02.951Z,30.77
2019-05-11T23:35:31.399Z,30.68
2019-05-11T23:37:59.820Z,27.55
2019-05-11T23:40:28.534Z,27.70
2019-05-11T23:42:57.908Z,31.02
2019-05-11T23:45:27.925Z,29.30
2019-05-11T23:47:58.667Z,34.08
2019-05-11T23:50:28.155Z,25.57
2019-05-11T23:53:06.126Z,23.52
2019-05-11T23:55:29.034Z,25.17
2019-05-11T23:57:57.676Z,27.93
